createdAt,value
2022-10-24T00:00:19.398Z,17.90
2022-10-24T00:02:50.265Z,17.90
2022-10-24T00:05:23.269Z,17.90
2022-10-24T00:07:54.607Z,18.00
2022-10-24T00:10:24.885Z,18.00
2022-10-24T00:12:57.102Z,18.00
2022-10-24T00:15:27.360Z,18.00
2022-10-24T00:17:58.009Z,18.00
2022-10-24T00:20:28.180Z,18.00
2022-10-24T00:22:58.805Z,18.00
2022-10-24T00:25:33.135Z,18.10
2022-10-24T00:28:03.466Z,18.10
2022-10-24T00:30:33.631Z,18.10
2022-10-24T00:33:04.099Z,18.10
2022-10-24T00:35:34.402Z,18.10
2022-10-24T00:38:04.705Z,18.10
2022-10-24T00:40:35.391Z,18.00
2022-10-24T00:43:05.748Z,17.90
2022-10-24T00:45:52.476Z,17.90
2022-10-24T00:48:48.258Z,17.90
2022-10-24T00:51:35.541Z,17.90
2022-10-24T00:54:10.657Z,17.90
2022-10-24T00:56:57.843Z,17.90
2022-10-24T00:59:30.185Z,18.00
2022-10-24T01:02:02.350Z,18.00
2022-10-24T01:04:32.698Z,18.00
2022-10-24T01:07:24.428Z,18.00
2022-10-24T01:13:09.201Z,17.80
2022-10-24T01:15:58.014Z,17.80
2022-10-24T01:18:50.699Z,17.70
2022-10-24T01:21:30.287Z,17.70
2022-10-24T01:24:09.729Z,17.70
2022-10-24T01:27:01.652Z,17.70
2022-10-24T01:29:59.104Z,17.70
2022-10-24T01:32:59.125Z,17.60
2022-10-24T01:35:50.715Z,17.70
2022-10-24T01:38:36.145Z,17.70
2022-10-24T01:41:24.667Z,17.80
2022-10-24T01:44:28.087Z,18.00
2022-10-24T01:47:04.542Z,18.00
2022-10-24T01:49:40.150Z,17.90
2022-10-24T01:52:15.262Z,17.90
2022-10-24T01:54:47.492Z,17.80
2022-10-24T01:57:19.421Z,17.70
2022-10-24T01:59:51.443Z,17.70
2022-10-24T02:02:32.824Z,17.70
2022-10-24T02:05:11.884Z,17.80
2022-10-24T02:07:48.284Z,17.90
2022-10-24T02:10:32.063Z,18.00
2022-10-24T02:13:12.999Z,18.30
2022-10-24T02:15:55.372Z,18.50
2022-10-24T02:18:25.886Z,18.70
2022-10-24T02:21:01.938Z,18.90
2022-10-24T02:23:54.215Z,19.10
2022-10-24T02:26:37.756Z,19.20
2022-10-24T02:29:17.879Z,19.30
2022-10-24T02:32:02.081Z,19.30
2022-10-24T02:34:35.989Z,19.30
2022-10-24T02:37:08.685Z,19.20
2022-10-24T02:39:41.785Z,19.10
2022-10-24T02:42:12.735Z,19.10
2022-10-24T02:44:44.435Z,19.00
2022-10-24T02:47:16.932Z,18.90
2022-10-24T02:49:47.174Z,18.90
2022-10-24T02:52:17.766Z,18.80
2022-10-24T02:54:48.103Z,18.80
2022-10-24T02:57:18.490Z,18.80
2022-10-24T02:59:48.749Z,18.80
2022-10-24T03:02:19.719Z,18.80
2022-10-24T03:04:49.959Z,18.70
2022-10-24T03:07:20.763Z,18.70
2022-10-24T03:09:51.098Z,18.70
2022-10-24T03:12:21.447Z,18.60
2022-10-24T03:14:51.820Z,18.70
2022-10-24T03:17:23.541Z,18.70
2022-10-24T03:19:53.843Z,18.70
2022-10-24T03:22:28.644Z,18.70
2022-10-24T03:25:04.611Z,18.70
2022-10-24T03:27:36.168Z,18.80
2022-10-24T03:30:07.648Z,19.00
2022-10-24T03:33:07.409Z,19.00
2022-10-24T03:35:39.315Z,19.20
2022-10-24T03:38:10.466Z,19.30
2022-10-24T03:40:43.169Z,19.40
2022-10-24T03:43:13.743Z,19.70
2022-10-24T03:45:44.305Z,19.80
2022-10-24T03:48:15.242Z,20.00
2022-10-24T03:50:45.912Z,20.00
2022-10-24T03:53:16.719Z,19.90
2022-10-24T03:55:46.900Z,19.80
2022-10-24T03:58:17.298Z,19.70
2022-10-24T04:00:47.656Z,19.70
2022-10-24T04:03:18.131Z,19.60
2022-10-24T04:05:48.421Z,19.60
2022-10-24T04:08:23.871Z,19.50
2022-10-24T04:10:56.122Z,19.50
2022-10-24T04:13:27.616Z,19.50
2022-10-24T04:15:59.121Z,19.50
2022-10-24T04:18:31.006Z,19.50
2022-10-24T04:21:01.742Z,19.40
2022-10-24T04:23:36.194Z,19.40
2022-10-24T04:26:06.968Z,19.50
2022-10-24T04:28:37.465Z,19.40
2022-10-24T04:31:08.847Z,19.40
2022-10-24T04:33:41.616Z,19.40
2022-10-24T04:36:12.818Z,19.30
2022-10-24T04:38:43.158Z,19.40
2022-10-24T04:41:13.456Z,19.40
2022-10-24T04:43:44.054Z,19.40
2022-10-24T04:46:14.726Z,19.40
2022-10-24T04:48:44.963Z,19.30
2022-10-24T04:51:18.579Z,19.30
2022-10-24T04:53:52.825Z,19.30
2022-10-24T04:56:23.879Z,19.30
2022-10-24T04:58:54.628Z,19.30
2022-10-24T05:01:25.412Z,19.40
2022-10-24T05:03:55.744Z,19.40
2022-10-24T05:06:26.036Z,19.50
2022-10-24T05:08:56.501Z,19.60
2022-10-24T05:11:27.137Z,19.70
2022-10-24T05:13:57.559Z,19.80
2022-10-24T05:16:27.708Z,20.00
2022-10-24T05:18:58.002Z,20.10
2022-10-24T05:21:28.227Z,20.10
2022-10-24T05:23:59.004Z,20.10
2022-10-24T05:26:29.257Z,20.20
2022-10-24T05:28:59.559Z,20.30
2022-10-24T05:34:04.644Z,20.20
2022-10-24T05:36:35.352Z,20.00
2022-10-24T05:39:06.270Z,20.00
2022-10-24T05:41:36.479Z,19.90
2022-10-24T05:44:07.382Z,19.70
2022-10-24T05:46:38.082Z,19.60
2022-10-24T05:49:08.757Z,19.50
2022-10-24T05:51:42.074Z,19.30
2022-10-24T05:56:42.970Z,19.20
2022-10-24T05:59:13.933Z,19.10
2022-10-24T06:01:46.266Z,19.10
2022-10-24T06:04:17.646Z,19.10
2022-10-24T06:06:48.292Z,19.10
2022-10-24T06:09:18.641Z,19.00
2022-10-24T06:11:49.335Z,19.00
2022-10-24T06:14:20.418Z,19.00
2022-10-24T06:16:52.445Z,18.90
2022-10-24T06:19:23.617Z,18.80
2022-10-24T06:21:54.334Z,18.60
2022-10-24T06:24:24.924Z,18.50
2022-10-24T06:27:00.017Z,18.50
2022-10-24T06:29:30.874Z,18.40
2022-10-24T06:32:01.757Z,18.40
2022-10-24T06:34:33.658Z,18.30
2022-10-24T06:37:05.870Z,18.30
2022-10-24T06:39:36.736Z,18.30
2022-10-24T06:42:07.731Z,18.30
2022-10-24T06:44:38.359Z,18.30
2022-10-24T06:47:09.160Z,18.30
2022-10-24T06:49:39.888Z,18.30
2022-10-24T06:52:10.458Z,18.30
2022-10-24T06:54:41.567Z,18.30
2022-10-24T06:57:11.730Z,18.30
2022-10-24T06:59:42.825Z,18.40
2022-10-24T07:02:17.829Z,18.30
2022-10-24T07:04:49.591Z,18.30
2022-10-24T07:07:23.142Z,18.30
2022-10-24T07:09:58.892Z,18.20
2022-10-24T07:12:30.685Z,18.20
2022-10-24T07:15:02.559Z,18.10
2022-10-24T07:17:33.903Z,18.10
2022-10-24T07:20:05.511Z,18.00
2022-10-24T07:22:36.518Z,18.00
2022-10-24T07:25:09.575Z,18.00
2022-10-24T07:27:40.143Z,17.90
2022-10-24T07:30:12.460Z,17.90
2022-10-24T07:32:43.554Z,17.80
2022-10-24T07:35:17.496Z,17.80
2022-10-24T07:37:48.613Z,17.70
2022-10-24T07:40:20.049Z,17.60
2022-10-24T07:42:50.872Z,17.60
2022-10-24T07:45:21.611Z,17.60
2022-10-24T07:47:52.283Z,17.60
2022-10-24T07:50:23.303Z,17.50
2022-10-24T07:52:53.977Z,17.50
2022-10-24T07:55:25.228Z,17.40
2022-10-24T07:57:56.157Z,17.30
2022-10-24T08:00:28.383Z,17.20
2022-10-24T08:02:59.201Z,17.20
2022-10-24T08:05:30.136Z,17.10
2022-10-24T08:08:24.733Z,17.00
2022-10-24T08:10:51.724Z,16.90
2022-10-24T08:13:22.677Z,16.90
2022-10-24T08:15:55.323Z,16.80
2022-10-24T08:18:30.112Z,16.80
2022-10-24T08:21:03.258Z,16.70
2022-10-24T08:23:35.901Z,16.70
2022-10-24T08:26:13.338Z,16.70
2022-10-24T08:28:44.911Z,16.60
2022-10-24T08:31:20.821Z,16.60
2022-10-24T08:33:54.108Z,16.60
2022-10-24T08:36:32.867Z,16.50
2022-10-24T08:39:03.340Z,16.50
2022-10-24T08:41:37.050Z,16.50
2022-10-24T08:44:36.353Z,16.50
2022-10-24T08:47:29.545Z,16.40
2022-10-24T08:50:26.011Z,16.40
2022-10-24T08:53:17.542Z,16.50
2022-10-24T08:55:59.107Z,16.40
2022-10-24T08:58:31.363Z,16.40
2022-10-24T09:01:04.918Z,16.40
2022-10-24T09:03:55.052Z,16.40
2022-10-24T09:06:29.580Z,16.40
2022-10-24T09:09:35.188Z,16.40
2022-10-24T09:12:07.101Z,16.40
2022-10-24T09:14:41.454Z,16.40
2022-10-24T09:17:34.425Z,16.30
2022-10-24T09:20:24.545Z,16.30
2022-10-24T09:22:57.895Z,16.30
2022-10-24T09:25:36.182Z,16.30
2022-10-24T09:28:08.908Z,16.30
2022-10-24T09:30:39.892Z,16.30
2022-10-24T09:33:34.116Z,16.30
2022-10-24T09:36:07.884Z,16.30
2022-10-24T09:38:40.305Z,16.30
2022-10-24T09:41:22.832Z,16.30
2022-10-24T09:43:56.348Z,16.30
2022-10-24T09:46:52.790Z,16.30
2022-10-24T09:49:27.464Z,16.30
2022-10-24T09:52:10.478Z,16.30
2022-10-24T09:54:41.058Z,16.30
2022-10-24T09:59:52.774Z,16.30
2022-10-24T10:02:30.420Z,16.30
2022-10-24T10:05:06.894Z,16.40
2022-10-24T10:07:40.341Z,16.40
2022-10-24T10:10:11.661Z,16.40
2022-10-24T10:12:46.796Z,16.30
2022-10-24T10:15:29.040Z,16.30
2022-10-24T10:18:05.518Z,16.30
2022-10-24T10:20:43.633Z,16.40
2022-10-24T10:23:29.289Z,16.30
2022-10-24T10:26:27.430Z,16.30
2022-10-24T10:29:02.902Z,16.30
2022-10-24T10:31:49.534Z,16.30
2022-10-24T10:34:41.549Z,16.30
2022-10-24T10:37:24.626Z,16.30
2022-10-24T10:40:24.661Z,16.30
2022-10-24T10:43:05.018Z,16.30
2022-10-24T10:46:04.961Z,16.30
2022-10-24T10:48:53.145Z,16.30
2022-10-24T10:51:26.823Z,16.30
2022-10-24T10:54:06.262Z,16.30
2022-10-24T10:56:48.582Z,16.30
2022-10-24T10:59:33.902Z,16.30
2022-10-24T11:02:25.272Z,16.30
2022-10-24T11:05:23.352Z,16.30
2022-10-24T11:08:19.280Z,16.30
2022-10-24T11:11:07.885Z,16.30
2022-10-24T11:13:45.595Z,16.30
2022-10-24T11:16:28.191Z,16.30
2022-10-24T11:19:11.341Z,16.30
2022-10-24T11:21:45.587Z,16.30
2022-10-24T11:24:21.051Z,16.30
2022-10-24T11:27:09.794Z,16.30
2022-10-24T11:29:59.623Z,16.20
2022-10-24T11:32:59.517Z,16.20
2022-10-24T11:35:35.853Z,16.30
2022-10-24T11:38:35.099Z,16.20
2022-10-24T11:41:46.457Z,16.20
2022-10-24T11:44:42.214Z,16.20
2022-10-24T11:47:28.067Z,16.20
2022-10-24T11:50:25.630Z,16.20
2022-10-24T11:53:08.054Z,16.20
2022-10-24T11:55:43.451Z,16.20
2022-10-24T11:58:22.883Z,16.20
2022-10-24T12:01:31.309Z,16.20
2022-10-24T12:04:26.166Z,16.20
2022-10-24T12:07:38.093Z,16.20
2022-10-24T12:10:25.316Z,16.20
2022-10-24T12:13:21.165Z,16.20
2022-10-24T12:16:31.201Z,16.20
2022-10-24T12:19:24.443Z,16.20
2022-10-24T12:22:00.516Z,16.20
2022-10-24T12:24:40.599Z,16.20
2022-10-24T12:27:32.289Z,16.10
2022-10-24T12:30:31.850Z,16.10
2022-10-24T12:33:13.718Z,16.10
2022-10-24T12:35:46.805Z,16.10
2022-10-24T12:38:26.331Z,16.10
2022-10-24T12:41:15.602Z,16.10
2022-10-24T12:43:52.502Z,16.10
2022-10-24T12:46:42.427Z,16.10
2022-10-24T12:49:13.085Z,16.10
2022-10-24T12:51:43.975Z,16.10
2022-10-24T12:54:21.437Z,16.10
2022-10-24T12:56:55.037Z,16.10
2022-10-24T12:59:35.417Z,16.10
2022-10-24T13:02:51.487Z,16.10
2022-10-24T13:05:46.467Z,16.10
2022-10-24T13:08:29.611Z,16.10
2022-10-24T13:11:33.486Z,16.10
2022-10-24T13:14:10.927Z,16.10
2022-10-24T13:17:00.675Z,16.10
2022-10-24T13:19:33.278Z,16.10
2022-10-24T13:22:04.368Z,16.10
2022-10-24T13:24:42.313Z,16.10
2022-10-24T13:27:16.198Z,16.10
2022-10-24T13:29:46.419Z,16.10
2022-10-24T13:32:19.935Z,16.10
2022-10-24T13:34:54.595Z,16.10
2022-10-24T13:37:48.924Z,16.00
2022-10-24T13:40:31.747Z,16.00
2022-10-24T13:43:07.843Z,15.90
2022-10-24T13:45:45.279Z,15.90
2022-10-24T13:48:22.950Z,15.90
2022-10-24T13:51:11.676Z,15.90
2022-10-24T13:54:05.733Z,15.80
2022-10-24T13:56:42.333Z,15.80
2022-10-24T13:59:33.082Z,15.80
2022-10-24T14:02:20.716Z,15.70
2022-10-24T14:04:56.102Z,15.70
2022-10-24T14:07:35.749Z,15.70
2022-10-24T14:10:14.632Z,15.70
2022-10-24T14:12:48.190Z,15.70
2022-10-24T14:15:24.944Z,15.80
2022-10-24T14:18:02.343Z,15.80
2022-10-24T14:20:35.191Z,15.80
2022-10-24T14:23:18.324Z,15.80
2022-10-24T14:25:55.292Z,15.80
2022-10-24T14:28:31.631Z,15.80
2022-10-24T14:31:05.390Z,15.80
2022-10-24T14:33:46.767Z,15.80
2022-10-24T14:36:17.723Z,15.80
2022-10-24T14:38:48.665Z,15.80
2022-10-24T14:41:20.651Z,15.80
2022-10-24T14:43:50.947Z,15.80
2022-10-24T14:46:29.671Z,15.80
2022-10-24T14:49:03.357Z,15.80
2022-10-24T14:51:40.216Z,15.80
2022-10-24T14:54:23.400Z,15.80
2022-10-24T14:56:56.234Z,15.80
2022-10-24T14:59:39.310Z,15.80
2022-10-24T15:02:37.556Z,15.90
2022-10-24T15:05:25.556Z,15.90
2022-10-24T15:08:22.815Z,15.90
2022-10-24T15:11:27.400Z,15.90
2022-10-24T15:14:06.781Z,15.90
2022-10-24T15:16:40.865Z,15.90
2022-10-24T15:19:19.839Z,15.90
2022-10-24T15:21:50.343Z,15.90
2022-10-24T15:24:27.370Z,15.90
2022-10-24T15:27:15.401Z,15.90
2022-10-24T15:29:45.846Z,15.90
2022-10-24T15:32:16.055Z,15.90
2022-10-24T15:34:46.486Z,15.90
2022-10-24T15:37:22.036Z,15.90
2022-10-24T15:39:55.769Z,15.90
2022-10-24T15:42:26.600Z,15.90
2022-10-24T15:44:57.185Z,15.90
2022-10-24T15:47:27.625Z,15.90
2022-10-24T15:49:57.822Z,16.00
2022-10-24T15:52:28.084Z,15.90
2022-10-24T15:54:58.274Z,16.00
2022-10-24T15:57:28.518Z,16.00
2022-10-24T15:59:59.485Z,16.00
2022-10-24T16:02:29.694Z,16.00
2022-10-24T16:05:01.154Z,16.00
2022-10-24T16:07:31.377Z,16.00
2022-10-24T16:10:01.620Z,16.00
2022-10-24T16:12:32.080Z,16.00
2022-10-24T16:15:02.238Z,16.00
2022-10-24T16:17:32.479Z,16.10
2022-10-24T16:20:02.661Z,16.10
2022-10-24T16:22:32.893Z,16.10
2022-10-24T16:25:03.079Z,16.10
2022-10-24T16:27:33.279Z,16.10
2022-10-24T16:30:03.517Z,16.10
2022-10-24T16:32:33.726Z,16.10
2022-10-24T16:35:04.417Z,16.10
2022-10-24T16:37:35.999Z,16.10
2022-10-24T16:40:07.138Z,16.10
2022-10-24T16:42:40.709Z,16.10
2022-10-24T16:45:11.419Z,16.10
2022-10-24T16:47:41.664Z,16.10
2022-10-24T16:50:16.795Z,16.10
2022-10-24T16:52:47.446Z,16.10
2022-10-24T16:55:18.311Z,16.10
2022-10-24T16:57:49.116Z,16.10
2022-10-24T17:00:22.756Z,16.10
2022-10-24T17:02:55.655Z,16.10
2022-10-24T17:05:28.413Z,16.10
2022-10-24T17:07:59.303Z,16.10
2022-10-24T17:10:30.829Z,16.10
2022-10-24T17:13:02.663Z,16.10
2022-10-24T17:15:32.907Z,16.10
2022-10-24T17:18:03.156Z,16.10
2022-10-24T17:20:33.332Z,16.10
2022-10-24T17:23:05.764Z,16.10
2022-10-24T17:25:37.354Z,16.10
2022-10-24T17:28:08.395Z,16.10
2022-10-24T17:30:38.745Z,16.10
2022-10-24T17:33:09.141Z,16.10
2022-10-24T17:35:42.761Z,16.10
2022-10-24T17:38:17.126Z,16.10
2022-10-24T17:40:50.907Z,16.10
2022-10-24T17:43:26.064Z,16.10
2022-10-24T17:46:00.031Z,16.10
2022-10-24T17:48:30.650Z,16.20
2022-10-24T17:51:04.398Z,16.10
2022-10-24T17:53:34.513Z,16.10
2022-10-24T17:56:04.985Z,16.10
2022-10-24T17:58:35.507Z,16.10
2022-10-24T18:01:05.830Z,16.10
2022-10-24T18:03:36.454Z,16.10
2022-10-24T18:06:08.950Z,16.20
2022-10-24T18:08:39.087Z,16.20
2022-10-24T18:11:14.504Z,16.10
2022-10-24T18:13:44.848Z,16.10
2022-10-24T18:16:17.823Z,16.10
2022-10-24T18:18:49.985Z,16.20
2022-10-24T18:21:26.890Z,16.20
2022-10-24T18:23:58.547Z,16.20
2022-10-24T18:26:30.512Z,16.10
2022-10-24T18:29:01.143Z,16.10
2022-10-24T18:31:33.550Z,16.10
2022-10-24T18:34:08.360Z,16.10
2022-10-24T18:36:38.986Z,16.10
2022-10-24T18:39:09.628Z,16.10
2022-10-24T18:41:57.407Z,16.10
2022-10-24T18:44:29.392Z,16.10
2022-10-24T18:47:07.446Z,16.10
2022-10-24T18:49:38.651Z,16.10
2022-10-24T18:52:42.624Z,16.10
2022-10-24T18:55:27.365Z,16.10
2022-10-24T18:57:58.671Z,16.00
2022-10-24T19:00:31.820Z,16.10
2022-10-24T19:03:12.388Z,16.00
2022-10-24T19:05:51.855Z,16.10
2022-10-24T19:08:33.958Z,16.10
2022-10-24T19:11:04.341Z,16.10
2022-10-24T19:13:35.246Z,16.10
2022-10-24T19:16:06.515Z,16.00
2022-10-24T19:18:39.279Z,16.10
2022-10-24T19:21:09.705Z,16.00
2022-10-24T19:23:40.957Z,16.10
2022-10-24T19:26:12.884Z,16.10
2022-10-24T19:28:43.415Z,16.00
2022-10-24T19:31:18.138Z,16.10
2022-10-24T19:33:48.342Z,16.10
2022-10-24T19:36:19.345Z,16.10
2022-10-24T19:38:50.121Z,16.10
2022-10-24T19:41:20.320Z,16.10
2022-10-24T19:43:50.531Z,16.20
2022-10-24T19:46:21.571Z,16.20
2022-10-24T19:48:52.027Z,16.20
2022-10-24T19:51:23.380Z,16.20
2022-10-24T19:53:56.019Z,16.20
2022-10-24T19:56:28.483Z,16.20
2022-10-24T19:58:59.360Z,16.20
2022-10-24T20:01:32.636Z,16.30
2022-10-24T20:04:04.361Z,16.30
2022-10-24T20:06:35.194Z,16.30
2022-10-24T20:09:05.929Z,16.30
2022-10-24T20:11:36.755Z,16.30
2022-10-24T20:14:06.959Z,16.40
2022-10-24T20:16:37.830Z,16.40
2022-10-24T20:19:08.460Z,16.50
2022-10-24T20:21:39.331Z,16.50
2022-10-24T20:24:10.175Z,16.60
2022-10-24T20:26:40.381Z,16.60
2022-10-24T20:29:10.652Z,16.60
2022-10-24T20:31:43.053Z,16.70
2022-10-24T20:34:13.663Z,16.80
2022-10-24T20:36:46.357Z,16.80
2022-10-24T20:39:22.567Z,16.90
2022-10-24T20:41:54.260Z,16.90
2022-10-24T20:44:28.231Z,16.90
2022-10-24T20:47:00.628Z,17.00
2022-10-24T20:49:33.471Z,17.10
2022-10-24T20:52:04.274Z,17.10
2022-10-24T20:54:35.421Z,17.20
2022-10-24T20:57:05.664Z,17.20
2022-10-24T20:59:36.902Z,17.30
2022-10-24T21:02:07.890Z,17.30
2022-10-24T21:04:39.253Z,17.30
2022-10-24T21:07:11.492Z,17.30
2022-10-24T21:09:41.646Z,17.30
2022-10-24T21:12:11.883Z,17.30
2022-10-24T21:14:42.083Z,17.30
2022-10-24T21:17:12.399Z,17.30
2022-10-24T21:19:42.642Z,17.30
2022-10-24T21:22:13.470Z,17.30
2022-10-24T21:24:43.724Z,17.40
2022-10-24T21:27:14.379Z,17.40
2022-10-24T21:29:44.971Z,17.50
2022-10-24T21:32:16.779Z,17.50
2022-10-24T21:34:47.393Z,17.50
2022-10-24T21:37:18.943Z,17.50
2022-10-24T21:39:50.501Z,17.50
2022-10-24T21:42:21.948Z,17.50
2022-10-24T21:44:52.577Z,17.60
2022-10-24T21:47:22.961Z,17.70
2022-10-24T21:49:53.122Z,17.70
2022-10-24T21:52:23.431Z,17.80
2022-10-24T21:54:53.995Z,17.80
2022-10-24T21:57:24.267Z,17.90
2022-10-24T21:59:54.428Z,17.90
2022-10-24T22:02:24.896Z,18.00
2022-10-24T22:04:55.180Z,18.10
2022-10-24T22:09:56.839Z,18.20
2022-10-24T22:12:27.079Z,18.30
2022-10-24T22:14:57.307Z,18.30
2022-10-24T22:17:27.554Z,18.40
2022-10-24T22:19:57.708Z,18.50
2022-10-24T22:22:27.872Z,18.80
2022-10-24T22:24:58.175Z,19.00
2022-10-24T22:27:28.358Z,19.20
2022-10-24T22:29:58.560Z,19.40
2022-10-24T22:32:29.015Z,19.70
2022-10-24T22:34:59.549Z,20.00
2022-10-24T22:37:34.321Z,20.20
2022-10-24T22:40:05.395Z,20.30
2022-10-24T22:42:36.262Z,20.40
2022-10-24T22:45:07.062Z,20.50
2022-10-24T22:48:06.324Z,20.40
2022-10-24T22:50:55.273Z,20.20
2022-10-24T22:53:28.409Z,20.10
2022-10-24T22:56:13.709Z,20.10
2022-10-24T22:58:46.388Z,20.30
2022-10-24T23:01:53.145Z,20.50
2022-10-24T23:04:39.101Z,20.60
2022-10-24T23:07:56.582Z,20.70
2022-10-24T23:10:27.672Z,20.60
2022-10-24T23:12:58.483Z,20.60
2022-10-24T23:15:29.372Z,20.50
2022-10-24T23:17:59.770Z,20.50
2022-10-24T23:20:35.963Z,20.60
2022-10-24T23:23:17.269Z,20.70
2022-10-24T23:26:05.847Z,20.60
2022-10-24T23:28:52.499Z,20.50
2022-10-24T23:31:22.825Z,20.40
2022-10-24T23:33:53.334Z,20.40
2022-10-24T23:36:27.972Z,20.30
2022-10-24T23:39:00.594Z,20.20
2022-10-24T23:41:31.059Z,20.00
2022-10-24T23:44:01.419Z,20.00
2022-10-24T23:46:37.629Z,20.00
2022-10-24T23:49:28.993Z,20.00
2022-10-24T23:52:27.477Z,20.30
2022-10-24T23:54:57.800Z,20.70
2022-10-24T23:57:28.360Z,21.20
2022-10-24T23:59:58.536Z,21.50
